Time;durP1;ratioP1;P1;durP2;ratioP2;P2;SDS_P1;SDS_P2;PMS_P1;PMS_P2;Temp;Humidity;BMP_temperature;BMP_pressure;BME280_temperature;BME280_humidity;BME280_pressure;Samples;Min_cycle;Max_cycle;Signal;HPM_P1;HPM_P2
2024/01/21 00:00:12;;;;;;;13.27;6.97;;;1.00;99.90;;;;;;5023939;28;20057;-65
2024/01/21 00:02:38;;;;;;;11.10;7.22;;;1.00;99.90;;;;;;5030529;28;20116;-65
2024/01/21 00:05:04;;;;;;;12.15;6.90;;;1.00;99.90;;;;;;5014812;28;20052;-65
2024/01/21 00:07:29;;;;;;;14.73;8.00;;;1.00;99.90;;;;;;5041287;28;20037;-65
2024/01/21 00:09:55;;;;;;;12.05;7.68;;;1.10;99.90;;;;;;5026654;28;20474;-68
2024/01/21 00:12:21;;;;;;;12.68;8.00;;;1.00;99.90;;;;;;5031381;28;20045;-65
2024/01/21 00:14:47;;;;;;;10.63;7.10;;;1.00;99.90;;;;;;5033267;28;20049;-65
2024/01/21 00:17:13;;;;;;;12.90;6.63;;;1.00;99.90;;;;;;5032695;28;20130;-64
2024/01/21 00:19:39;;;;;;;12.07;7.95;;;1.10;99.90;;;;;;5014088;28;20053;-65
2024/01/21 00:22:05;;;;;;;11.30;7.43;;;1.10;99.90;;;;;;5031514;28;20099;-64
2024/01/21 00:24:31;;;;;;;13.52;7.25;;;1.10;99.90;;;;;;5031501;28;20095;-67
2024/01/21 00:26:57;;;;;;;10.57;7.43;;;1.00;99.90;;;;;;5032288;28;20470;-65
2024/01/21 00:29:23;;;;;;;10.02;7.93;;;1.10;99.90;;;;;;5028080;28;20092;-64
2024/01/21 00:31:48;;;;;;;12.30;7.32;;;1.10;99.90;;;;;;5032000;28;20475;-64
2024/01/21 00:34:14;;;;;;;13.27;7.95;;;1.10;99.90;;;;;;5023766;28;20046;-64
2024/01/21 00:36:40;;;;;;;12.30;7.10;;;1.10;99.90;;;;;;5047335;28;20048;-64
2024/01/21 00:39:06;;;;;;;11.93;7.72;;;1.20;99.90;;;;;;5032436;28;20033;-64
2024/01/21 00:41:31;;;;;;;10.57;6.90;;;1.10;99.90;;;;;;5033059;28;20505;-64
2024/01/21 00:43:57;;;;;;;12.10;8.05;;;1.20;99.90;;;;;;5013934;28;20037;-64
2024/01/21 00:46:23;;;;;;;10.50;7.47;;;1.10;99.90;;;;;;5030068;28;20113;-64
2024/01/21 00:48:49;;;;;;;10.55;6.50;;;1.20;99.90;;;;;;5030918;28;20515;-65
2024/01/21 00:51:15;;;;;;;9.82;7.00;;;1.20;99.90;;;;;;5064751;28;20176;-64
2024/01/21 00:53:40;;;;;;;11.02;6.28;;;1.20;99.90;;;;;;5028984;28;20041;-65
2024/01/21 00:56:06;;;;;;;10.68;6.75;;;1.20;99.90;;;;;;5064152;28;20049;-65
2024/01/21 00:58:32;;;;;;;10.93;7.18;;;1.20;99.90;;;;;;5032148;28;20048;-64
2024/01/21 01:00:58;;;;;;;11.50;7.90;;;1.20;99.90;;;;;;5032422;28;20359;-69
2024/01/21 01:03:24;;;;;;;10.57;6.72;;;1.20;99.90;;;;;;5014846;28;20037;-64
2024/01/21 01:05:50;;;;;;;14.70;8.15;;;1.60;99.90;;;;;;5030151;28;20156;-65
2024/01/21 01:08:17;;;;;;;11.48;7.50;;;1.20;99.90;;;;;;5031345;28;20128;-64
2024/01/21 01:10:43;;;;;;;10.82;7.72;;;1.90;99.90;;;;;;5032752;28;20041;-65
2024/01/21 01:13:09;;;;;;;11.73;7.15;;;1.20;99.90;;;;;;5031651;28;20045;-65
2024/01/21 01:15:35;;;;;;;11.13;6.80;;;1.30;99.90;;;;;;5029476;28;20053;-64
2024/01/21 01:18:02;;;;;;;9.93;6.50;;;1.20;99.90;;;;;;5031255;28;20403;-70
2024/01/21 01:20:27;;;;;;;11.43;8.38;;;1.20;99.90;;;;;;5022771;28;20088;-64
2024/01/21 01:22:53;;;;;;;14.02;8.52;;;1.40;99.90;;;;;;5031540;28;20451;-64
2024/01/21 01:25:19;;;;;;;10.63;7.40;;;1.30;99.90;;;;;;5061865;28;20463;-64
2024/01/21 01:27:45;;;;;;;11.10;7.53;;;1.20;99.90;;;;;;5031911;28;20041;-64
2024/01/21 01:30:11;;;;;;;10.35;6.38;;;1.20;99.90;;;;;;5030129;28;20030;-64
2024/01/21 01:32:36;;;;;;;11.75;8.15;;;1.20;99.90;;;;;;5024638;28;20034;-65
2024/01/21 01:35:04;;;;;;;14.63;8.05;;;1.20;99.90;;;;;;5025028;28;20410;-69
2024/01/21 01:37:30;;;;;;;12.13;5.90;;;1.20;99.90;;;;;;5029702;28;20090;-64
2024/01/21 01:39:56;;;;;;;11.57;7.82;;;1.20;99.90;;;;;;5027660;28;20467;-64
2024/01/21 01:42:22;;;;;;;10.90;7.72;;;1.20;99.90;;;;;;5020583;28;20045;-64
2024/01/21 01:44:47;;;;;;;11.13;7.68;;;1.20;99.90;;;;;;5024467;28;20124;-64
2024/01/21 01:47:13;;;;;;;11.27;7.30;;;1.20;99.90;;;;;;5019933;28;20104;-64
2024/01/21 01:49:41;;;;;;;11.07;7.68;;;1.20;99.90;;;;;;5030805;28;20037;-64
2024/01/21 01:52:07;;;;;;;10.35;6.90;;;1.20;99.90;;;;;;5029637;28;20079;-70
2024/01/21 01:54:34;;;;;;;12.88;7.32;;;1.30;99.90;;;;;;5031107;28;20041;-64
2024/01/21 01:57:02;;;;;;;9.50;6.90;;;1.30;99.90;;;;;;5031547;28;20052;-65
2024/01/21 01:59:30;;;;;;;9.88;6.45;;;1.30;99.90;;;;;;5031454;28;20052;-64
2024/01/21 02:01:56;;;;;;;10.73;7.10;;;1.30;99.90;;;;;;5030836;28;20045;-64
2024/01/21 02:04:23;;;;;;;10.30;6.50;;;1.50;99.90;;;;;;5028100;28;20053;-64
2024/01/21 02:06:48;;;;;;;10.00;7.00;;;1.30;99.90;;;;;;5022393;28;20037;-64
2024/01/21 02:09:14;;;;;;;9.77;6.53;;;1.30;99.90;;;;;;5029980;28;20463;-65
2024/01/21 02:11:39;;;;;;;11.25;7.35;;;2.00;99.90;;;;;;5031890;28;20045;-64
2024/01/21 02:14:05;;;;;;;10.50;6.72;;;2.00;99.90;;;;;;5029352;28;20037;-66
2024/01/21 02:16:31;;;;;;;10.82;7.72;;;1.70;99.90;;;;;;5030831;28;20045;-64
2024/01/21 02:18:58;;;;;;;10.50;6.93;;;1.30;99.90;;;;;;5038070;28;20048;-65
2024/01/21 02:21:23;;;;;;;11.90;7.15;;;1.30;99.90;;;;;;5023836;28;20120;-64
2024/01/21 02:23:49;;;;;;;10.07;6.43;;;1.30;99.90;;;;;;5026302;28;20149;-65
2024/01/21 02:26:15;;;;;;;10.85;6.80;;;1.20;99.90;;;;;;5023905;28;20040;-64
2024/01/21 02:28:40;;;;;;;10.60;7.20;;;1.30;99.90;;;;;;5026154;28;20046;-65
2024/01/21 02:31:06;;;;;;;8.52;5.97;;;1.30;99.90;;;;;;5021581;28;20100;-65
2024/01/21 02:33:31;;;;;;;9.93;7.03;;;1.70;99.90;;;;;;5025207;28;20059;-65
2024/01/21 02:35:57;;;;;;;9.98;6.15;;;1.30;99.90;;;;;;5023905;28;20041;-65
2024/01/21 02:38:23;;;;;;;10.02;6.10;;;1.70;99.90;;;;;;5024993;28;20041;-64
2024/01/21 02:40:49;;;;;;;9.73;6.60;;;1.30;99.90;;;;;;5059716;28;20041;-65
2024/01/21 02:43:14;;;;;;;11.43;6.72;;;1.30;99.90;;;;;;5022476;28;20467;-69
2024/01/21 02:45:40;;;;;;;11.68;6.28;;;1.30;99.90;;;;;;5046532;28;20048;-64
2024/01/21 02:48:06;;;;;;;10.05;6.07;;;1.50;99.90;;;;;;5028746;28;20049;-64
2024/01/21 02:50:32;;;;;;;9.43;6.05;;;1.30;99.90;;;;;;5030554;28;20098;-64
2024/01/21 02:52:57;;;;;;;7.85;5.35;;;1.50;99.90;;;;;;5031411;28;20041;-64
2024/01/21 02:55:23;;;;;;;10.57;6.47;;;1.30;99.90;;;;;;5031078;28;20038;-65
2024/01/21 02:57:49;;;;;;;9.38;5.95;;;1.30;99.90;;;;;;5030108;28;20037;-64
2024/01/21 03:00:15;;;;;;;11.07;5.35;;;1.40;99.90;;;;;;5030871;28;20422;-67
2024/01/21 03:02:40;;;;;;;8.05;5.38;;;1.40;99.90;;;;;;5028492;28;20045;-65
2024/01/21 03:05:06;;;;;;;8.57;5.28;;;1.40;99.90;;;;;;5031395;28;20052;-65
2024/01/21 03:07:32;;;;;;;8.90;5.53;;;1.30;99.90;;;;;;5031166;28;20038;-65
2024/01/21 03:09:58;;;;;;;8.80;4.65;;;1.40;99.90;;;;;;5035038;28;20041;-64
2024/01/21 03:12:23;;;;;;;7.57;5.20;;;1.40;99.90;;;;;;5034336;28;20383;-65
2024/01/21 03:14:49;;;;;;;9.00;5.85;;;2.00;99.90;;;;;;5033447;28;20195;-64
2024/01/21 03:17:15;;;;;;;8.15;4.60;;;1.40;99.90;;;;;;5028144;28;20112;-65
2024/01/21 03:19:40;;;;;;;7.78;4.88;;;1.40;99.90;;;;;;5033947;28;20479;-65
2024/01/21 03:22:06;;;;;;;8.57;5.60;;;1.40;99.90;;;;;;5030879;28;20049;-65
2024/01/21 03:24:32;;;;;;;8.93;5.03;;;1.40;99.90;;;;;;5032783;28;20049;-65
2024/01/21 03:26:57;;;;;;;6.57;4.55;;;1.50;99.90;;;;;;5026403;28;20038;-65
2024/01/21 03:29:24;;;;;;;9.23;4.60;;;1.50;99.90;;;;;;5031031;28;20398;-65
2024/01/21 03:31:49;;;;;;;7.20;4.43;;;1.50;99.90;;;;;;5034619;28;20140;-65
2024/01/21 03:34:15;;;;;;;7.75;4.50;;;1.50;99.90;;;;;;5034329;28;20136;-65
2024/01/21 03:36:41;;;;;;;9.02;4.80;;;1.50;99.90;;;;;;5032411;28;20119;-65
2024/01/21 03:39:07;;;;;;;7.40;4.60;;;1.50;99.90;;;;;;5031926;28;20091;-65
2024/01/21 03:41:33;;;;;;;8.00;4.35;;;1.40;99.90;;;;;;5032157;28;20052;-65
2024/01/21 03:43:59;;;;;;;6.45;4.00;;;1.80;99.90;;;;;;5033357;28;20049;-64
2024/01/21 03:46:25;;;;;;;5.78;3.47;;;1.40;99.90;;;;;;5032234;28;20111;-66
2024/01/21 03:48:50;;;;;;;9.25;5.00;;;1.40;99.90;;;;;;5031984;28;20402;-65
2024/01/21 03:51:16;;;;;;;6.13;3.83;;;1.40;99.90;;;;;;5033664;28;20076;-64
2024/01/21 03:53:42;;;;;;;5.53;3.15;;;1.40;99.90;;;;;;5032259;28;20433;-65
2024/01/21 03:56:08;;;;;;;8.48;4.40;;;2.00;99.90;;;;;;5033024;28;20498;-64
2024/01/21 03:58:34;;;;;;;6.57;3.97;;;1.40;99.90;;;;;;5063911;28;20120;-65
2024/01/21 04:01:01;;;;;;;6.43;3.90;;;1.30;99.90;;;;;;5032809;28;20175;-65
2024/01/21 04:03:27;;;;;;;5.65;3.67;;;1.40;99.90;;;;;;5033502;28;20120;-66
2024/01/21 04:05:53;;;;;;;6.72;3.97;;;1.30;99.90;;;;;;5066032;28;20120;-65
2024/01/21 04:08:18;;;;;;;5.90;3.42;;;1.40;99.90;;;;;;5031136;28;20033;-64
2024/01/21 04:10:44;;;;;;;6.40;3.60;;;1.40;99.90;;;;;;5032978;28;20048;-65
2024/01/21 04:13:10;;;;;;;6.97;3.70;;;1.40;99.90;;;;;;5033573;28;20045;-65
2024/01/21 04:15:35;;;;;;;6.85;3.65;;;1.30;99.90;;;;;;5032103;28;20463;-65
2024/01/21 04:18:01;;;;;;;6.65;3.97;;;1.30;99.90;;;;;;5032210;28;20041;-65
2024/01/21 04:20:27;;;;;;;7.28;3.78;;;1.30;99.90;;;;;;5025328;28;20037;-70
2024/01/21 04:22:52;;;;;;;6.80;3.38;;;1.30;99.90;;;;;;5031621;28;20525;-65
2024/01/21 04:25:18;;;;;;;6.45;3.35;;;1.30;99.90;;;;;;5033347;28;20037;-65
2024/01/21 04:27:44;;;;;;;7.40;4.00;;;1.30;99.90;;;;;;5031715;28;20048;-65
2024/01/21 04:30:10;;;;;;;5.60;2.88;;;1.40;99.90;;;;;;5030841;28;20077;-65
2024/01/21 04:32:35;;;;;;;4.75;2.53;;;1.40;99.90;;;;;;5032460;28;20041;-65
2024/01/21 04:35:01;;;;;;;5.47;3.08;;;1.40;99.90;;;;;;5033423;28;20121;-65
2024/01/21 04:37:27;;;;;;;5.25;3.30;;;1.40;99.90;;;;;;5033279;28;20470;-65
2024/01/21 04:39:53;;;;;;;7.03;3.35;;;1.50;99.90;;;;;;5031056;28;20119;-65
2024/01/21 04:42:19;;;;;;;5.03;3.08;;;1.50;99.90;;;;;;5033115;28;20038;-64
2024/01/21 04:44:45;;;;;;;5.35;3.20;;;1.40;99.90;;;;;;5031495;28;20056;-66
2024/01/21 04:47:10;;;;;;;5.72;2.97;;;2.20;99.90;;;;;;5027563;28;20046;-65
2024/01/21 04:49:36;;;;;;;5.20;3.28;;;1.90;99.90;;;;;;5018688;28;20056;-65
2024/01/21 04:52:02;;;;;;;6.07;2.60;;;1.50;99.90;;;;;;5029691;28;20459;-64
2024/01/21 04:54:28;;;;;;;5.32;3.00;;;1.60;99.90;;;;;;5026934;28;20083;-64
2024/01/21 04:56:53;;;;;;;5.75;3.08;;;1.60;99.90;;;;;;5025465;28;20046;-65
2024/01/21 04:59:19;;;;;;;3.60;2.53;;;1.80;99.90;;;;;;5025699;28;20128;-65
2024/01/21 05:01:48;;;;;;;5.30;2.95;;;1.60;99.90;;;;;;5025509;28;20084;-65
2024/01/21 05:04:14;;;;;;;5.30;2.95;;;1.60;99.90;;;;;;5026724;28;20341;-65
2024/01/21 05:06:40;;;;;;;5.35;2.90;;;1.70;99.90;;;;;;5026403;28;20041;-65
2024/01/21 05:09:06;;;;;;;4.97;2.97;;;1.70;99.90;;;;;;5022482;28;20046;-65
2024/01/21 05:11:31;;;;;;;5.13;2.63;;;1.80;99.90;;;;;;5026227;28;20451;-65
2024/01/21 05:13:57;;;;;;;4.47;2.50;;;1.70;99.90;;;;;;5021559;28;20037;-64
2024/01/21 05:16:23;;;;;;;5.22;2.90;;;1.70;99.90;;;;;;5018674;28;20052;-66
2024/01/21 05:18:48;;;;;;;5.40;2.67;;;2.00;99.90;;;;;;5023809;28;20530;-65
2024/01/21 05:21:21;;;;;;;4.75;3.00;;;1.70;99.90;;;;;;5034194;28;20501;-64
2024/01/21 05:23:49;;;;;;;4.60;2.80;;;1.70;99.90;;;;;;5021080;28;20120;-66
2024/01/21 05:26:14;;;;;;;5.00;2.85;;;1.70;99.90;;;;;;5029680;28;20068;-64
2024/01/21 05:28:40;;;;;;;7.05;2.58;;;1.70;99.90;;;;;;5054983;28;20037;-64
2024/01/21 05:31:06;;;;;;;5.57;3.08;;;1.80;99.90;;;;;;5028940;28;20069;-64
2024/01/21 05:33:32;;;;;;;6.88;2.90;;;1.80;99.90;;;;;;5020216;28;20084;-63
2024/01/21 05:35:57;;;;;;;7.30;3.15;;;1.80;99.80;;;;;;5026265;28;20100;-64
2024/01/21 05:38:23;;;;;;;4.72;2.63;;;2.00;99.90;;;;;;5050064;28;20132;-64
2024/01/21 05:40:49;;;;;;;6.85;2.38;;;1.80;99.90;;;;;;5022761;28;20378;-64
2024/01/21 05:43:14;;;;;;;4.78;2.75;;;1.80;99.90;;;;;;5020545;28;20128;-64
2024/01/21 05:45:40;;;;;;;4.68;2.58;;;1.90;99.70;;;;;;5029333;28;20041;-69
2024/01/21 05:48:07;;;;;;;5.68;2.90;;;1.90;99.70;;;;;;5031971;28;20041;-64
2024/01/21 05:50:32;;;;;;;6.70;2.50;;;1.90;99.90;;;;;;5018460;28;20119;-64
2024/01/21 05:52:58;;;;;;;5.50;3.10;;;1.90;99.60;;;;;;5025925;28;20463;-64
2024/01/21 05:55:24;;;;;;;8.80;3.17;;;1.90;99.60;;;;;;5014841;28;20041;-64
2024/01/21 05:57:50;;;;;;;5.05;2.65;;;1.90;99.90;;;;;;5028955;28;20387;-64
2024/01/21 06:00:16;;;;;;;5.70;3.33;;;1.90;99.60;;;;;;5018807;28;20120;-64
2024/01/21 06:02:43;;;;;;;5.00;2.97;;;1.90;99.30;;;;;;5016353;28;20389;-68
2024/01/21 06:05:09;;;;;;;5.90;3.10;;;2.00;99.40;;;;;;5016568;28;20053;-64
2024/01/21 06:07:34;;;;;;;5.43;2.97;;;1.90;99.50;;;;;;5018735;28;20050;-65
2024/01/21 06:10:00;;;;;;;6.00;3.10;;;2.30;99.70;;;;;;5018562;28;20467;-65
2024/01/21 06:12:26;;;;;;;8.05;3.60;;;2.00;99.80;;;;;;5017716;28;20045;-64
2024/01/21 06:14:51;;;;;;;6.57;3.28;;;1.90;99.70;;;;;;5014406;28;20045;-64
2024/01/21 06:17:17;;;;;;;6.05;3.25;;;2.00;99.90;;;;;;5053068;28;20383;-64
2024/01/21 06:19:43;;;;;;;6.15;3.83;;;2.00;99.80;;;;;;5021391;28;20048;-64
2024/01/21 06:22:08;;;;;;;5.38;3.58;;;2.20;99.80;;;;;;5019668;28;20046;-64
2024/01/21 06:24:38;;;;;;;6.07;3.50;;;2.00;99.70;;;;;;5024419;28;20045;-65
2024/01/21 06:27:04;;;;;;;5.55;3.03;;;1.90;99.90;;;;;;5014131;28;20467;-65
2024/01/21 06:29:29;;;;;;;6.60;3.60;;;1.90;99.90;;;;;;5048877;28;20107;-64
2024/01/21 06:31:55;;;;;;;8.05;4.07;;;1.90;99.90;;;;;;5013965;28;20041;-65
2024/01/21 06:34:21;;;;;;;5.93;3.78;;;1.90;99.90;;;;;;5016343;28;20041;-64
2024/01/21 06:36:47;;;;;;;5.20;3.50;;;2.00;99.90;;;;;;5020264;28;20045;-69
2024/01/21 06:39:12;;;;;;;6.28;4.18;;;1.80;99.90;;;;;;5027579;28;20479;-65
2024/01/21 06:41:38;;;;;;;5.32;3.38;;;1.80;99.90;;;;;;5022753;28;20079;-65
2024/01/21 06:44:04;;;;;;;5.57;3.20;;;1.80;99.90;;;;;;5025752;28;20041;-64
2024/01/21 06:46:30;;;;;;;5.88;4.00;;;2.40;99.90;;;;;;5035287;28;20136;-65
2024/01/21 06:48:55;;;;;;;6.38;4.18;;;1.80;99.90;;;;;;5029687;28;20437;-65
2024/01/21 06:51:31;;;;;;;4.97;3.38;;;1.80;99.90;;;;;;5031804;28;20086;-64
2024/01/21 06:53:59;;;;;;;7.80;4.00;;;1.80;99.90;;;;;;5029594;28;20037;-65
2024/01/21 06:56:25;;;;;;;6.07;3.88;;;2.30;99.90;;;;;;5035223;28;20045;-64
2024/01/21 06:58:51;;;;;;;7.45;4.32;;;1.70;99.90;;;;;;5029615;28;20399;-69
2024/01/21 07:01:17;;;;;;;6.35;3.53;;;2.20;99.90;;;;;;5034612;28;20057;-64
2024/01/21 07:03:45;;;;;;;6.50;3.35;;;1.70;99.90;;;;;;5034453;28;20043;-66
2024/01/21 07:06:11;;;;;;;6.47;3.97;;;1.80;99.90;;;;;;5033647;28;20591;-64
2024/01/21 07:08:38;;;;;;;6.28;3.92;;;2.50;99.90;;;;;;5031106;28;20454;-65
2024/01/21 07:11:08;;;;;;;7.38;4.40;;;1.80;99.90;;;;;;5034259;28;20045;-64
2024/01/21 07:13:33;;;;;;;7.45;4.75;;;1.70;99.90;;;;;;5034679;28;20048;-64
2024/01/21 07:15:59;;;;;;;6.80;4.32;;;1.70;99.90;;;;;;5019962;28;20042;-65
2024/01/21 07:18:25;;;;;;;7.55;4.55;;;1.80;99.90;;;;;;5034980;28;20154;-64
2024/01/21 07:20:51;;;;;;;6.85;4.15;;;1.80;99.90;;;;;;5034090;28;20048;-64
2024/01/21 07:23:16;;;;;;;8.02;4.75;;;1.80;99.90;;;;;;5025880;28;20112;-64
2024/01/21 07:25:43;;;;;;;7.03;4.88;;;1.80;99.90;;;;;;5026868;28;20520;-64
2024/01/21 07:28:09;;;;;;;6.75;4.32;;;1.80;99.90;;;;;;5030980;28;20033;-64
2024/01/21 07:30:34;;;;;;;8.93;5.03;;;1.70;99.90;;;;;;5033391;28;20099;-65
2024/01/21 07:33:00;;;;;;;7.32;4.57;;;1.70;99.90;;;;;;5032600;28;20433;-65
2024/01/21 07:35:26;;;;;;;9.88;4.72;;;2.30;99.90;;;;;;5034081;28;20043;-64
2024/01/21 07:37:51;;;;;;;7.28;4.38;;;1.70;99.90;;;;;;5029822;28;20482;-65
2024/01/21 07:40:17;;;;;;;9.27;4.95;;;1.70;99.90;;;;;;5029429;28;20241;-64
2024/01/21 07:42:43;;;;;;;8.60;4.78;;;1.60;99.90;;;;;;5033014;28;20045;-63
2024/01/21 07:45:09;;;;;;;9.73;5.03;;;1.70;99.90;;;;;;5030522;28;20301;-64
2024/01/21 07:47:35;;;;;;;8.20;4.30;;;1.60;99.90;;;;;;5032720;28;20048;-64
2024/01/21 07:50:00;;;;;;;8.93;4.93;;;1.60;99.90;;;;;;5032523;28;20045;-64
2024/01/21 07:52:26;;;;;;;8.35;5.03;;;1.60;99.90;;;;;;5020484;28;20093;-65
2024/01/21 07:54:52;;;;;;;6.75;4.78;;;1.80;99.90;;;;;;5019683;28;20088;-65
2024/01/21 07:57:17;;;;;;;7.55;5.07;;;1.80;99.90;;;;;;5029419;28;20538;-65
2024/01/21 07:59:43;;;;;;;7.57;5.43;;;1.70;99.90;;;;;;5022058;28;20049;-65
2024/01/21 08:02:09;;;;;;;9.77;5.28;;;1.70;99.90;;;;;;5017118;28;20074;-66
2024/01/21 08:04:35;;;;;;;8.18;5.18;;;1.90;99.90;;;;;;5017082;28;20064;-66
2024/01/21 08:07:01;;;;;;;7.93;4.82;;;1.60;99.90;;;;;;5057454;28;20352;-71
2024/01/21 08:09:28;;;;;;;8.00;4.80;;;1.70;99.90;;;;;;5015970;28;20046;-66
2024/01/21 08:11:54;;;;;;;9.07;5.18;;;1.70;99.90;;;;;;5017682;28;20048;-65
2024/01/21 08:14:19;;;;;;;8.05;5.55;;;1.60;99.90;;;;;;5012891;28;20049;-65
2024/01/21 08:16:45;;;;;;;6.85;4.90;;;1.70;99.90;;;;;;5060716;28;20052;-67
2024/01/21 08:19:11;;;;;;;6.97;4.18;;;1.70;99.90;;;;;;5024189;28;20040;-66
2024/01/21 08:21:36;;;;;;;7.32;4.22;;;1.70;99.90;;;;;;5015836;28;20053;-67
2024/01/21 08:24:03;;;;;;;8.60;5.43;;;1.70;99.90;;;;;;5017991;28;20042;-71
2024/01/21 08:26:29;;;;;;;7.70;5.03;;;1.70;99.90;;;;;;5012559;28;20046;-66
2024/01/21 08:28:55;;;;;;;7.57;5.30;;;1.70;99.90;;;;;;5017493;28;20053;-66
2024/01/21 08:31:20;;;;;;;7.60;4.82;;;1.80;99.90;;;;;;5051092;28;20029;-66
2024/01/21 08:33:46;;;;;;;6.97;4.35;;;1.90;99.90;;;;;;5024367;28;20243;-67
2024/01/21 08:36:12;;;;;;;7.80;5.30;;;1.80;99.90;;;;;;5027812;28;20038;-67
2024/01/21 08:38:38;;;;;;;9.60;5.22;;;1.80;99.90;;;;;;5020480;28;20065;-66
2024/01/21 08:41:04;;;;;;;7.03;4.80;;;1.80;99.90;;;;;;5031895;28;20083;-68
2024/01/21 08:43:30;;;;;;;8.65;5.55;;;1.80;99.90;;;;;;5016939;28;20049;-69
2024/01/21 08:45:56;;;;;;;8.27;5.45;;;1.80;99.90;;;;;;5024848;28;20052;-66
2024/01/21 08:48:21;;;;;;;7.55;5.53;;;2.00;99.90;;;;;;5019320;28;20178;-66
2024/01/21 08:50:47;;;;;;;9.00;5.70;;;1.90;99.90;;;;;;5028464;28;20080;-67
2024/01/21 08:53:13;;;;;;;10.32;5.93;;;2.60;99.90;;;;;;5021960;28;20139;-66
2024/01/21 08:55:38;;;;;;;8.27;5.80;;;2.00;99.90;;;;;;5030023;28;20041;-66
2024/01/21 08:58:04;;;;;;;9.30;5.53;;;2.00;99.90;;;;;;5032064;28;20045;-66
2024/01/21 09:00:30;;;;;;;8.75;5.45;;;2.00;99.90;;;;;;5014141;28;20042;-66
2024/01/21 09:02:56;;;;;;;9.18;5.60;;;2.00;99.90;;;;;;5020417;28;20038;-67
2024/01/21 09:05:22;;;;;;;8.43;5.13;;;2.00;99.90;;;;;;5016660;28;20045;-67
2024/01/21 09:07:47;;;;;;;9.98;5.53;;;2.00;99.90;;;;;;5018790;28;20518;-67
2024/01/21 09:10:14;;;;;;;7.25;4.95;;;2.00;99.90;;;;;;5033251;28;20470;-68
2024/01/21 09:12:39;;;;;;;12.90;5.85;;;2.00;99.90;;;;;;5025468;28;20239;-67
2024/01/21 09:15:06;;;;;;;10.00;5.88;;;2.10;99.90;;;;;;5022182;28;20041;-67
2024/01/21 09:17:32;;;;;;;8.77;5.80;;;2.10;99.90;;;;;;5018578;28;20052;-67
2024/01/21 09:19:58;;;;;;;8.15;5.93;;;2.10;99.90;;;;;;5036316;28;20033;-67
2024/01/21 09:22:24;;;;;;;7.85;5.20;;;2.10;99.90;;;;;;5051933;28;20105;-67
2024/01/21 09:24:49;;;;;;;9.43;5.35;;;2.20;99.90;;;;;;5054806;28;20376;-67
2024/01/21 09:27:15;;;;;;;9.35;5.53;;;2.20;99.90;;;;;;5024774;28;20085;-67
2024/01/21 09:29:42;;;;;;;7.85;4.95;;;2.30;99.90;;;;;;5033219;28;20124;-67
2024/01/21 09:32:10;;;;;;;8.45;5.60;;;2.30;99.90;;;;;;5021261;28;20411;-67
2024/01/21 09:34:39;;;;;;;8.02;5.32;;;2.40;99.90;;;;;;5026831;28;20143;-68
2024/01/21 09:37:05;;;;;;;8.40;5.30;;;2.40;99.90;;;;;;5024389;28;20404;-68
2024/01/21 09:39:31;;;;;;;8.32;5.93;;;2.40;99.90;;;;;;5022307;28;20494;-68
2024/01/21 09:41:58;;;;;;;8.82;5.25;;;2.40;99.90;;;;;;5025761;28;20049;-67
2024/01/21 09:44:28;;;;;;;9.60;6.05;;;2.50;99.90;;;;;;5021180;28;20037;-67
2024/01/21 09:46:59;;;;;;;8.77;5.45;;;2.60;99.90;;;;;;5029806;28;20068;-68
2024/01/21 09:49:26;;;;;;;8.48;5.05;;;2.60;99.90;;;;;;5030168;28;20346;-67
2024/01/21 09:51:52;;;;;;;9.27;5.30;;;2.60;99.90;;;;;;5029907;28;20045;-67
2024/01/21 09:54:23;;;;;;;8.30;5.32;;;3.10;99.90;;;;;;5024777;28;20440;-70
2024/01/21 09:56:48;;;;;;;7.55;5.38;;;2.70;99.90;;;;;;5019765;28;20033;-68
2024/01/21 09:59:16;;;;;;;9.20;5.75;;;2.70;99.90;;;;;;5027986;28;20184;-69
2024/01/21 10:01:41;;;;;;;8.65;5.20;;;2.70;99.90;;;;;;5029060;28;20111;-69
2024/01/21 10:04:09;;;;;;;10.52;7.15;;;2.90;99.90;;;;;;5018517;28;20545;-68
2024/01/21 10:06:35;;;;;;;9.93;5.85;;;2.80;99.90;;;;;;5034372;28;20056;-69
2024/01/21 10:09:10;;;;;;;8.35;5.40;;;3.00;99.90;;;;;;5027402;28;20224;-69
2024/01/21 10:11:37;;;;;;;8.95;6.10;;;3.00;99.90;;;;;;5021073;28;20364;-70
2024/01/21 10:14:02;;;;;;;9.27;6.38;;;2.90;99.90;;;;;;5019745;28;20033;-69
2024/01/21 10:16:28;;;;;;;9.15;6.38;;;2.90;99.90;;;;;;5022624;28;20049;-69
2024/01/21 10:18:54;;;;;;;8.18;5.22;;;3.00;99.90;;;;;;5027914;28;20045;-70
2024/01/21 10:21:20;;;;;;;9.77;5.88;;;3.00;99.90;;;;;;5015903;28;20041;-75
2024/01/21 10:23:49;;;;;;;8.00;4.95;;;3.00;99.90;;;;;;5021466;28;20051;-71
2024/01/21 10:26:15;;;;;;;7.75;5.72;;;3.10;99.90;;;;;;5029550;28;20033;-71
2024/01/21 10:28:41;;;;;;;10.23;6.03;;;3.10;99.90;;;;;;5061471;28;20068;-70
2024/01/21 10:31:07;;;;;;;9.75;5.70;;;3.10;99.90;;;;;;5057207;28;20375;-70
2024/01/21 10:33:33;;;;;;;9.63;6.22;;;3.20;99.90;;;;;;5059062;28;20041;-70
2024/01/21 10:36:02;;;;;;;11.60;6.03;;;3.20;99.90;;;;;;5021824;28;20437;-71
2024/01/21 10:38:45;;;;;;;8.48;4.95;;;3.30;99.90;;;;;;5027581;28;20049;-72
2024/01/21 10:41:13;;;;;;;10.38;6.30;;;3.30;99.90;;;;;;5062859;28;20049;-71
2024/01/21 10:43:40;;;;;;;8.95;5.43;;;3.30;99.90;;;;;;5027619;28;20049;-72
2024/01/21 10:46:07;;;;;;;9.73;5.78;;;3.30;99.90;;;;;;5061916;28;20099;-71
2024/01/21 10:48:34;;;;;;;8.73;5.72;;;3.40;99.90;;;;;;5028554;28;20052;-71
2024/01/21 10:51:00;;;;;;;9.85;5.70;;;3.40;99.90;;;;;;5029459;28;20104;-70
2024/01/21 10:53:27;;;;;;;7.95;5.43;;;3.40;99.90;;;;;;5023267;28;20497;-71
2024/01/21 10:55:54;;;;;;;12.45;7.03;;;3.40;99.90;;;;;;5024711;28;20137;-70
2024/01/21 10:58:20;;;;;;;10.68;5.90;;;3.50;99.90;;;;;;5029864;28;20041;-71
2024/01/21 11:00:46;;;;;;;10.80;6.40;;;3.40;99.90;;;;;;5020466;28;20586;-71
2024/01/21 11:03:43;;;;;;;10.13;6.43;;;3.50;99.90;;;;;;5027342;28;20052;-73
2024/01/21 11:06:11;;;;;;;9.73;5.85;;;3.50;99.90;;;;;;5040569;28;20411;-69
2024/01/21 11:08:41;;;;;;;9.45;6.18;;;3.50;99.90;;;;;;5026607;28;20457;-69
2024/01/21 11:11:13;;;;;;;11.13;7.13;;;3.60;99.90;;;;;;5050443;28;20069;-68
2024/01/21 11:13:41;;;;;;;12.82;7.07;;;3.60;99.90;;;;;;5020583;28;20046;-70
2024/01/21 11:16:30;;;;;;;9.82;6.65;;;3.60;99.90;;;;;;5041463;28;20042;-68
2024/01/21 11:19:06;;;;;;;9.55;6.43;;;3.60;99.90;;;;;;5016729;28;20152;-69
2024/01/21 11:21:33;;;;;;;10.73;7.00;;;3.60;99.90;;;;;;5027842;28;20119;-73
2024/01/21 11:24:03;;;;;;;10.95;6.90;;;3.70;99.90;;;;;;5017604;28;20050;-69
2024/01/21 11:26:34;;;;;;;9.32;6.45;;;3.70;99.90;;;;;;5071922;28;20045;-75
2024/01/21 11:29:01;;;;;;;9.55;5.85;;;3.70;99.90;;;;;;5031897;28;20084;-69
2024/01/21 11:31:32;;;;;;;9.55;6.53;;;3.60;99.90;;;;;;5031894;28;20084;-69
2024/01/21 11:34:17;;;;;;;11.07;6.65;;;3.70;99.90;;;;;;5031571;28;20042;-69
2024/01/21 11:36:46;;;;;;;9.00;5.95;;;3.70;99.90;;;;;;5047280;28;20049;-69
2024/01/21 11:39:12;;;;;;;9.05;6.10;;;3.80;99.90;;;;;;5033985;28;20048;-69
2024/01/21 11:41:41;;;;;;;10.02;6.20;;;3.90;99.90;;;;;;5033641;28;20044;-69
2024/01/21 11:44:22;;;;;;;8.18;5.15;;;3.90;99.90;;;;;;5036326;28;20107;-69
2024/01/21 11:46:49;;;;;;;8.75;6.00;;;3.80;99.90;;;;;;5031693;28;20045;-71
2024/01/21 11:49:15;;;;;;;11.68;6.60;;;3.80;99.90;;;;;;5032073;28;20057;-73
2024/01/21 11:51:42;;;;;;;11.63;6.68;;;3.90;99.90;;;;;;5026071;28;20124;-72
2024/01/21 11:54:09;;;;;;;12.60;7.32;;;3.80;99.90;;;;;;5030460;28;20406;-71
2024/01/21 11:56:36;;;;;;;11.95;6.47;;;3.90;99.90;;;;;;5029794;28;20049;-72
2024/01/21 11:59:03;;;;;;;10.38;6.05;;;3.90;99.90;;;;;;5024863;28;20041;-70
2024/01/21 12:01:30;;;;;;;9.23;5.85;;;3.90;99.90;;;;;;5025054;28;20037;-70
2024/01/21 12:03:56;;;;;;;9.13;6.03;;;3.90;99.90;;;;;;5023406;28;20041;-70
2024/01/21 12:06:24;;;;;;;9.95;5.53;;;3.90;99.90;;;;;;5055488;28;20041;-70
2024/01/21 12:08:50;;;;;;;10.00;5.70;;;3.90;99.90;;;;;;5027887;28;20045;-70
2024/01/21 12:11:16;;;;;;;11.55;6.72;;;3.90;99.90;;;;;;5030559;28;20045;-70
2024/01/21 12:13:45;;;;;;;10.00;6.18;;;3.90;99.90;;;;;;5026715;28;20049;-70
2024/01/21 12:16:12;;;;;;;9.70;6.65;;;3.90;99.90;;;;;;5032300;28;20113;-72
2024/01/21 12:18:41;;;;;;;9.13;6.28;;;3.90;99.90;;;;;;5026044;28;20128;-75
2024/01/21 12:21:10;;;;;;;11.50;6.40;;;4.00;99.90;;;;;;5026144;28;20095;-69
2024/01/21 12:23:42;;;;;;;10.82;6.47;;;3.90;99.90;;;;;;5031846;28;20041;-75
2024/01/21 12:26:08;;;;;;;10.30;6.70;;;3.90;99.90;;;;;;5021271;28;20357;-69
2024/01/21 12:28:34;;;;;;;10.05;6.15;;;4.10;99.90;;;;;;5027120;28;20048;-69
2024/01/21 12:31:00;;;;;;;10.15;5.60;;;4.00;99.90;;;;;;5008024;28;20368;-68
2024/01/21 12:33:26;;;;;;;11.18;6.07;;;4.00;99.90;;;;;;5026107;28;20049;-68
2024/01/21 12:35:52;;;;;;;12.40;7.72;;;4.00;99.90;;;;;;5027868;28;20045;-69
2024/01/21 12:38:19;;;;;;;9.55;6.45;;;4.10;99.90;;;;;;5029708;28;20483;-69
2024/01/21 12:40:45;;;;;;;11.15;6.90;;;4.00;99.90;;;;;;5028114;28;20394;-68
2024/01/21 12:43:11;;;;;;;11.30;7.05;;;4.00;99.90;;;;;;5030621;28;20056;-70
2024/01/21 12:45:37;;;;;;;12.70;7.35;;;4.00;99.90;;;;;;5029269;28;20061;-68
2024/01/21 12:48:04;;;;;;;10.82;6.28;;;4.10;99.90;;;;;;5054116;28;20042;-68